createdAt,value
2024-01-06T00:00:26.467Z,95.40
2024-01-06T00:02:55.616Z,95.36
2024-01-06T00:05:22.610Z,95.11
2024-01-06T00:07:49.484Z,94.75
2024-01-06T00:10:17.758Z,94.71
2024-01-06T00:12:45.122Z,94.91
2024-01-06T00:15:14.768Z,94.81
2024-01-06T00:17:41.897Z,95.08
2024-01-06T00:20:09.409Z,95.08
2024-01-06T00:22:36.996Z,95.42
2024-01-06T00:25:04.056Z,95.14
2024-01-06T00:27:30.954Z,94.69
2024-01-06T00:29:57.917Z,94.73
2024-01-06T00:32:27.741Z,95.17
2024-01-06T00:34:55.559Z,95.39
2024-01-06T00:37:22.416Z,95.12
2024-01-06T00:39:49.753Z,94.93
2024-01-06T00:42:16.744Z,94.88
2024-01-06T00:44:43.513Z,94.62
2024-01-06T00:47:10.247Z,94.76
2024-01-06T00:49:37.296Z,94.87
2024-01-06T00:52:04.322Z,95.00
2024-01-06T00:54:31.214Z,95.05
2024-01-06T00:56:58.698Z,95.33
2024-01-06T00:59:25.612Z,95.00
2024-01-06T01:01:52.464Z,95.02
2024-01-06T01:04:19.342Z,94.87
2024-01-06T01:06:46.349Z,95.00
2024-01-06T01:09:15.158Z,95.09
2024-01-06T01:11:45.616Z,95.09
2024-01-06T01:14:12.425Z,95.19
2024-01-06T01:16:39.215Z,95.12
2024-01-06T01:19:06.233Z,94.96
2024-01-06T01:21:34.112Z,94.71
2024-01-06T01:24:01.005Z,94.56
2024-01-06T01:26:27.817Z,94.84
2024-01-06T01:28:54.554Z,95.03
2024-01-06T01:31:21.609Z,94.93
2024-01-06T01:33:48.800Z,95.02
2024-01-06T01:36:15.863Z,95.39
2024-01-06T01:38:42.691Z,95.35
2024-01-06T01:41:09.542Z,95.48
2024-01-06T01:43:36.622Z,95.44
2024-01-06T01:46:03.507Z,95.62
2024-01-06T01:48:30.667Z,95.71
2024-01-06T01:50:57.697Z,95.35
2024-01-06T01:53:25.589Z,95.27
2024-01-06T01:55:52.597Z,94.96
2024-01-06T01:58:19.480Z,94.67
2024-01-06T02:00:46.492Z,94.83
2024-01-06T02:03:14.639Z,94.61
2024-01-06T02:05:41.568Z,95.09
2024-01-06T02:08:08.743Z,94.80
2024-01-06T02:10:35.599Z,95.24
2024-01-06T02:13:12.304Z,95.73
2024-01-06T02:15:40.084Z,95.65
2024-01-06T02:18:07.359Z,95.53
2024-01-06T02:20:34.252Z,95.51
2024-01-06T02:23:02.104Z,95.52
2024-01-06T02:25:28.942Z,95.30
2024-01-06T02:27:56.395Z,94.96
2024-01-06T02:30:23.333Z,95.75
2024-01-06T02:32:50.160Z,95.31
2024-01-06T02:35:17.088Z,94.98
2024-01-06T02:37:44.023Z,95.17
2024-01-06T02:40:11.165Z,94.44
2024-01-06T02:42:38.238Z,94.91
2024-01-06T02:45:05.170Z,95.01
2024-01-06T02:47:32.123Z,94.77
2024-01-06T02:49:59.025Z,94.68
2024-01-06T02:52:25.803Z,94.69
2024-01-06T02:54:52.677Z,94.88
2024-01-06T02:57:19.774Z,94.83
2024-01-06T02:59:46.751Z,94.50
2024-01-06T03:02:13.654Z,95.10
2024-01-06T03:04:40.506Z,95.26
2024-01-06T03:07:07.292Z,95.51
2024-01-06T03:09:34.160Z,95.09
2024-01-06T03:12:01.058Z,95.47
2024-01-06T03:14:27.965Z,96.06
2024-01-06T03:16:54.755Z,95.91
2024-01-06T03:19:21.891Z,96.57
2024-01-06T03:21:52.265Z,97.27
2024-01-06T03:24:19.096Z,97.18
2024-01-06T03:26:46.188Z,97.35
2024-01-06T03:29:13.250Z,97.33
2024-01-06T03:31:43.348Z,97.16
2024-01-06T03:34:11.934Z,97.34
2024-01-06T03:36:39.369Z,97.86
2024-01-06T03:39:06.335Z,97.81
2024-01-06T03:41:40.096Z,97.68
2024-01-06T03:44:06.937Z,96.83
2024-01-06T03:46:34.644Z,95.99
2024-01-06T03:49:01.498Z,95.92
2024-01-06T03:51:28.501Z,96.27
2024-01-06T03:53:55.395Z,96.11
2024-01-06T03:56:22.265Z,96.35
2024-01-06T03:58:49.733Z,96.29
2024-01-06T04:01:16.618Z,95.77
2024-01-06T04:03:43.757Z,95.60
2024-01-06T04:06:10.688Z,93.77
2024-01-06T04:08:37.822Z,94.48
2024-01-06T04:11:04.784Z,94.00
2024-01-06T04:13:31.588Z,93.90
2024-01-06T04:15:58.377Z,93.66
2024-01-06T04:18:25.445Z,93.30
2024-01-06T04:20:52.392Z,93.21
2024-01-06T04:23:19.790Z,93.23
2024-01-06T04:25:47.379Z,93.84
2024-01-06T04:28:14.194Z,93.47
2024-01-06T04:30:41.043Z,92.39
2024-01-06T04:33:08.873Z,91.94
2024-01-06T04:35:35.807Z,92.12
2024-01-06T04:38:02.662Z,91.73
2024-01-06T04:40:29.444Z,91.16
2024-01-06T04:42:56.450Z,90.29
2024-01-06T04:45:25.541Z,90.40
2024-01-06T04:47:52.631Z,90.34
2024-01-06T04:50:19.622Z,90.01
2024-01-06T04:52:46.399Z,89.68
2024-01-06T04:55:13.596Z,89.75
2024-01-06T04:57:40.661Z,89.97
2024-01-06T05:00:07.875Z,90.12
2024-01-06T05:02:35.061Z,89.87
2024-01-06T05:05:02.013Z,89.40
2024-01-06T05:07:28.927Z,89.39
2024-01-06T05:09:55.784Z,90.11
2024-01-06T05:12:22.795Z,90.15
2024-01-06T05:14:49.616Z,89.92
2024-01-06T05:17:16.414Z,89.75
2024-01-06T05:19:43.242Z,89.81
2024-01-06T05:22:19.669Z,89.04
2024-01-06T05:24:46.542Z,89.86
2024-01-06T05:27:14.285Z,90.06
2024-01-06T05:29:41.256Z,90.00
2024-01-06T05:32:08.604Z,90.17
2024-01-06T05:34:35.911Z,88.54
2024-01-06T05:37:03.150Z,88.62
2024-01-06T05:39:30.048Z,89.02
2024-01-06T05:41:56.918Z,88.59
2024-01-06T05:44:23.979Z,89.02
2024-01-06T05:46:52.447Z,88.99
2024-01-06T05:49:19.855Z,87.49
2024-01-06T05:51:47.216Z,87.80
2024-01-06T05:54:14.687Z,88.59
2024-01-06T05:56:41.747Z,88.58
2024-01-06T05:59:08.740Z,89.08
2024-01-06T06:01:39.003Z,89.12
2024-01-06T06:04:05.792Z,89.19
2024-01-06T06:06:32.742Z,89.60
2024-01-06T06:08:59.607Z,90.16
2024-01-06T06:11:26.417Z,90.26
2024-01-06T06:13:53.606Z,89.64
2024-01-06T06:16:20.524Z,90.07
2024-01-06T06:18:47.730Z,89.75
2024-01-06T06:21:14.727Z,89.97
2024-01-06T06:23:41.525Z,89.77
2024-01-06T06:26:09.435Z,89.60
2024-01-06T06:28:36.665Z,88.85
2024-01-06T06:31:05.526Z,88.52
2024-01-06T06:33:34.988Z,88.68
2024-01-06T06:36:02.990Z,88.62
2024-01-06T06:38:29.896Z,88.98
2024-01-06T06:40:57.701Z,88.74
2024-01-06T06:43:24.631Z,89.17
2024-01-06T06:45:51.458Z,88.95
2024-01-06T06:48:18.641Z,89.18
2024-01-06T06:50:45.550Z,89.24
2024-01-06T06:53:12.448Z,89.39
2024-01-06T06:55:39.230Z,89.52
2024-01-06T06:58:07.093Z,89.22
2024-01-06T07:00:34.360Z,89.54
2024-01-06T07:03:01.464Z,89.76
2024-01-06T07:05:28.464Z,89.84
2024-01-06T07:07:55.845Z,90.26
2024-01-06T07:10:22.686Z,90.39
2024-01-06T07:12:49.459Z,90.31
2024-01-06T07:15:16.211Z,90.48
2024-01-06T07:17:43.112Z,90.21
2024-01-06T07:20:14.244Z,89.30
2024-01-06T07:22:45.467Z,88.96
2024-01-06T07:25:12.369Z,89.05
2024-01-06T07:27:39.311Z,89.06
2024-01-06T07:30:13.697Z,89.44
2024-01-06T07:32:40.565Z,89.56
2024-01-06T07:35:08.321Z,89.27
2024-01-06T07:37:35.611Z,89.19
2024-01-06T07:40:02.706Z,89.06
2024-01-06T07:42:33.758Z,89.47
2024-01-06T07:45:00.560Z,89.54
2024-01-06T07:47:27.562Z,88.99
2024-01-06T07:49:54.886Z,89.27
2024-01-06T07:52:24.397Z,88.84
2024-01-06T07:54:51.323Z,88.93
2024-01-06T07:57:18.349Z,88.85
2024-01-06T07:59:45.667Z,88.51
2024-01-06T08:02:19.802Z,88.23
2024-01-06T08:04:47.138Z,87.77
2024-01-06T08:07:15.479Z,87.15
2024-01-06T08:09:44.320Z,87.24
2024-01-06T08:12:11.391Z,87.21
2024-01-06T08:14:38.256Z,87.64
2024-01-06T08:17:05.252Z,87.75
2024-01-06T08:19:33.950Z,87.20
2024-01-06T08:22:01.155Z,86.97
2024-01-06T08:24:28.303Z,87.52
2024-01-06T08:26:55.255Z,86.57
2024-01-06T08:29:22.538Z,86.17
2024-01-06T08:31:51.693Z,86.61
2024-01-06T08:34:19.159Z,87.36
2024-01-06T08:36:46.572Z,87.04
2024-01-06T08:39:14.096Z,87.14
2024-01-06T08:41:41.092Z,87.86
2024-01-06T08:44:07.903Z,87.50
2024-01-06T08:46:34.937Z,87.11
2024-01-06T08:49:02.299Z,87.62
2024-01-06T08:51:29.259Z,87.21
2024-01-06T08:53:56.208Z,86.38
2024-01-06T08:56:23.138Z,86.47
2024-01-06T08:58:50.240Z,87.05
2024-01-06T09:01:17.405Z,87.68
2024-01-06T09:03:45.081Z,87.49
2024-01-06T09:06:11.962Z,86.91
2024-01-06T09:08:38.814Z,87.17
2024-01-06T09:11:11.304Z,87.28
2024-01-06T09:13:38.285Z,86.70
2024-01-06T09:16:05.922Z,87.08
2024-01-06T09:18:33.708Z,86.98
2024-01-06T09:21:07.550Z,86.79
2024-01-06T09:23:35.118Z,86.53
2024-01-06T09:26:02.038Z,86.35
2024-01-06T09:28:29.483Z,86.00
2024-01-06T09:31:08.475Z,85.95
2024-01-06T09:33:38.811Z,85.92
2024-01-06T09:36:06.103Z,86.33
2024-01-06T09:38:33.431Z,86.55
2024-01-06T09:41:00.650Z,86.55
2024-01-06T09:43:28.924Z,86.26
2024-01-06T09:45:59.118Z,86.46
2024-01-06T09:48:30.884Z,86.01
2024-01-06T09:51:05.668Z,86.08
2024-01-06T09:53:35.484Z,85.76
2024-01-06T09:56:03.094Z,85.36
2024-01-06T09:58:34.655Z,85.12
2024-01-06T10:01:05.647Z,85.97
2024-01-06T10:03:33.194Z,85.76
2024-01-06T10:06:05.045Z,84.99
2024-01-06T10:08:38.124Z,85.45
2024-01-06T10:11:04.987Z,85.96
2024-01-06T10:13:32.316Z,86.23
2024-01-06T10:16:02.286Z,85.60
2024-01-06T10:18:31.265Z,85.97
2024-01-06T10:21:02.141Z,86.12
2024-01-06T10:23:29.111Z,86.09
2024-01-06T10:26:01.176Z,86.70
2024-01-06T10:28:30.352Z,87.70
2024-01-06T10:31:03.316Z,87.05
2024-01-06T10:33:30.639Z,86.82
2024-01-06T10:36:04.108Z,86.46
2024-01-06T10:38:31.521Z,86.45
2024-01-06T10:41:02.359Z,86.61
2024-01-06T10:43:36.503Z,86.81
2024-01-06T10:46:06.559Z,86.17
2024-01-06T10:48:37.730Z,85.52
2024-01-06T10:51:11.851Z,85.19
2024-01-06T10:53:40.938Z,84.90
2024-01-06T10:56:09.453Z,83.35
2024-01-06T10:58:44.364Z,83.84
2024-01-06T11:01:11.633Z,83.81
2024-01-06T11:03:42.826Z,84.30
2024-01-06T11:06:16.383Z,83.87
2024-01-06T11:09:04.071Z,85.06
2024-01-06T11:11:32.128Z,84.64
2024-01-06T11:14:19.033Z,83.93
2024-01-06T11:16:48.659Z,84.85
2024-01-06T11:19:39.927Z,83.22
2024-01-06T11:22:25.673Z,83.44
2024-01-06T11:24:55.168Z,84.14
2024-01-06T11:27:27.594Z,84.98
2024-01-06T11:29:55.993Z,85.62
2024-01-06T11:32:28.735Z,86.30
2024-01-06T11:34:59.144Z,85.03
2024-01-06T11:37:40.408Z,84.89
2024-01-06T11:40:17.538Z,85.02
2024-01-06T11:42:48.895Z,84.49
2024-01-06T11:45:16.890Z,84.29
2024-01-06T11:47:51.800Z,85.66
2024-01-06T11:50:30.250Z,86.84
2024-01-06T11:53:01.786Z,84.80
2024-01-06T11:55:31.838Z,85.58
2024-01-06T11:58:05.664Z,85.98
2024-01-06T12:00:33.699Z,84.96
2024-01-06T12:03:02.611Z,85.39
2024-01-06T12:05:32.230Z,85.99
2024-01-06T12:08:00.273Z,84.95
2024-01-06T12:10:30.927Z,84.78
2024-01-06T12:13:00.236Z,85.34
2024-01-06T12:15:28.769Z,86.39
2024-01-06T12:17:56.379Z,85.26
2024-01-06T12:20:33.449Z,84.55
2024-01-06T12:23:04.492Z,85.44
2024-01-06T12:25:37.566Z,85.00
2024-01-06T12:28:07.401Z,85.00
2024-01-06T12:30:36.717Z,85.41
2024-01-06T12:33:06.582Z,85.38
2024-01-06T12:35:34.288Z,85.76
2024-01-06T12:38:03.134Z,86.07
2024-01-06T12:40:33.114Z,86.33
2024-01-06T12:43:06.232Z,86.19
2024-01-06T12:45:33.838Z,86.20
2024-01-06T12:48:03.971Z,86.98
2024-01-06T12:50:39.142Z,85.67
2024-01-06T12:53:12.130Z,85.43
2024-01-06T12:55:42.974Z,85.36
2024-01-06T12:58:10.216Z,84.82
2024-01-06T13:00:51.072Z,84.94
2024-01-06T13:03:20.093Z,84.92
2024-01-06T13:05:47.850Z,84.64
2024-01-06T13:08:17.586Z,85.35
2024-01-06T13:10:49.903Z,86.10
2024-01-06T13:13:20.276Z,86.20
2024-01-06T13:15:50.331Z,86.08
2024-01-06T13:18:21.685Z,85.00
2024-01-06T13:20:53.205Z,85.39
2024-01-06T13:23:20.121Z,86.64
2024-01-06T13:25:47.749Z,86.75
2024-01-06T13:28:15.861Z,86.52
2024-01-06T13:30:45.564Z,86.02
2024-01-06T13:33:12.629Z,85.43
2024-01-06T13:35:40.822Z,84.59
2024-01-06T13:38:08.160Z,84.36
2024-01-06T13:40:38.130Z,84.80
2024-01-06T13:43:06.805Z,85.40
2024-01-06T13:45:37.229Z,85.39
2024-01-06T13:48:08.175Z,85.73
2024-01-06T13:50:41.215Z,84.64
2024-01-06T13:53:08.488Z,84.86
2024-01-06T13:55:35.883Z,84.25
2024-01-06T13:58:03.380Z,83.91
2024-01-06T14:00:34.180Z,83.89
2024-01-06T14:03:01.394Z,84.49
2024-01-06T14:05:29.206Z,85.12
2024-01-06T14:07:56.894Z,84.37
2024-01-06T14:10:24.872Z,84.76
2024-01-06T14:12:51.965Z,84.42
2024-01-06T14:15:19.451Z,84.86
2024-01-06T14:17:51.441Z,85.07
2024-01-06T14:20:20.671Z,83.95
2024-01-06T14:22:50.900Z,84.36
2024-01-06T14:25:21.340Z,84.84
2024-01-06T14:27:49.633Z,85.61
2024-01-06T14:30:19.140Z,85.53
2024-01-06T14:32:49.583Z,84.91
2024-01-06T14:35:17.690Z,84.95
2024-01-06T14:37:46.056Z,84.71
2024-01-06T14:40:23.730Z,84.87
2024-01-06T14:42:50.710Z,84.48
2024-01-06T14:45:19.983Z,84.02
2024-01-06T14:47:51.797Z,84.56
2024-01-06T14:50:19.012Z,85.31
2024-01-06T14:52:46.227Z,85.12
2024-01-06T14:55:13.829Z,82.87
2024-01-06T14:57:44.597Z,83.45
2024-01-06T15:00:16.727Z,83.68
2024-01-06T15:02:48.591Z,82.61
2024-01-06T15:05:16.183Z,82.54
2024-01-06T15:07:43.390Z,82.37
2024-01-06T15:10:18.465Z,81.53
2024-01-06T15:12:47.583Z,81.36
2024-01-06T15:15:14.818Z,81.79
2024-01-06T15:17:42.128Z,82.03
2024-01-06T15:20:11.552Z,82.18
2024-01-06T15:22:40.943Z,82.44
2024-01-06T15:25:09.299Z,82.59
2024-01-06T15:27:36.636Z,81.74
2024-01-06T15:30:10.559Z,81.82
2024-01-06T15:32:39.469Z,81.85
2024-01-06T15:35:07.497Z,82.69
2024-01-06T15:37:34.897Z,82.96
2024-01-06T15:40:12.664Z,83.48
2024-01-06T15:42:39.930Z,83.46
2024-01-06T15:45:07.428Z,83.94
2024-01-06T15:47:34.934Z,84.07
2024-01-06T15:50:02.097Z,84.60
2024-01-06T15:52:29.005Z,84.11
2024-01-06T15:54:56.020Z,83.95
2024-01-06T15:57:23.345Z,83.21
2024-01-06T15:59:50.529Z,83.77
2024-01-06T16:02:17.555Z,83.82
2024-01-06T16:04:44.506Z,83.73
2024-01-06T16:07:11.814Z,83.64
2024-01-06T16:09:38.754Z,83.97
2024-01-06T16:12:07.479Z,84.19
2024-01-06T16:14:36.279Z,83.79
2024-01-06T16:17:03.683Z,84.49
2024-01-06T16:19:30.745Z,84.33
2024-01-06T16:22:14.828Z,84.13
2024-01-06T16:24:44.942Z,84.95
2024-01-06T16:27:11.939Z,84.56
2024-01-06T16:29:40.417Z,84.64
2024-01-06T16:32:11.589Z,84.86
2024-01-06T16:34:42.081Z,84.82
2024-01-06T16:37:09.091Z,84.75
2024-01-06T16:39:36.310Z,84.70
2024-01-06T16:42:03.616Z,84.92
2024-01-06T16:44:32.587Z,85.28
2024-01-06T16:47:01.151Z,85.34
2024-01-06T16:49:33.252Z,86.04
2024-01-06T16:52:00.521Z,85.56
2024-01-06T16:54:27.743Z,85.43
2024-01-06T16:56:54.925Z,85.68
2024-01-06T16:59:21.791Z,85.40
2024-01-06T17:01:48.843Z,85.75
2024-01-06T17:04:17.182Z,85.98
2024-01-06T17:06:44.174Z,86.49
2024-01-06T17:09:13.333Z,86.18
2024-01-06T17:11:40.483Z,86.21
2024-01-06T17:14:07.421Z,86.25
2024-01-06T17:16:34.525Z,86.07
2024-01-06T17:19:01.961Z,86.37
2024-01-06T17:21:29.102Z,86.31
2024-01-06T17:23:57.220Z,86.26
2024-01-06T17:26:24.251Z,86.45
2024-01-06T17:28:51.613Z,86.96
2024-01-06T17:31:18.639Z,87.04
2024-01-06T17:33:45.604Z,86.82
2024-01-06T17:36:12.788Z,86.79
2024-01-06T17:38:39.687Z,86.61
2024-01-06T17:41:07.210Z,86.76
2024-01-06T17:43:34.156Z,87.29
2024-01-06T17:46:01.019Z,88.20
2024-01-06T17:48:28.115Z,88.30
2024-01-06T17:50:56.016Z,88.32
2024-01-06T17:53:22.833Z,88.80
2024-01-06T17:55:49.675Z,88.63
2024-01-06T17:58:16.642Z,88.71
2024-01-06T18:00:43.723Z,89.06
2024-01-06T18:03:10.726Z,88.99
2024-01-06T18:05:37.708Z,89.02
2024-01-06T18:08:04.943Z,88.68
2024-01-06T18:10:38.147Z,89.08
2024-01-06T18:13:05.415Z,89.02
2024-01-06T18:15:34.225Z,89.00
2024-01-06T18:18:02.258Z,89.56
2024-01-06T18:20:30.635Z,89.03
2024-01-06T18:23:00.572Z,88.97
2024-01-06T18:25:27.389Z,89.31
2024-01-06T18:27:54.325Z,89.52
2024-01-06T18:30:24.177Z,88.58
2024-01-06T18:32:52.271Z,88.95
2024-01-06T18:35:19.274Z,88.99
2024-01-06T18:37:46.783Z,89.29
2024-01-06T18:40:17.039Z,89.47
2024-01-06T18:42:44.198Z,89.64
2024-01-06T18:45:11.489Z,90.11
2024-01-06T18:47:39.183Z,90.17
2024-01-06T18:50:10.865Z,90.74
2024-01-06T18:52:38.922Z,90.05
2024-01-06T18:55:06.169Z,91.42
2024-01-06T18:57:34.531Z,92.25
2024-01-06T19:00:04.560Z,95.37
2024-01-06T19:02:31.419Z,92.50
2024-01-06T19:04:58.407Z,89.78
2024-01-06T19:07:25.276Z,89.20
2024-01-06T19:09:52.235Z,88.92
2024-01-06T19:12:19.683Z,88.82
2024-01-06T19:14:47.349Z,89.12
2024-01-06T19:17:14.532Z,89.66
2024-01-06T19:19:42.234Z,90.14
2024-01-06T19:22:11.085Z,90.77
2024-01-06T19:24:43.393Z,90.40
2024-01-06T19:27:11.088Z,91.33
2024-01-06T19:29:44.056Z,92.91
2024-01-06T19:32:24.661Z,93.04
2024-01-06T19:34:55.814Z,92.46
2024-01-06T19:37:22.792Z,92.39
2024-01-06T19:39:49.994Z,91.96
2024-01-06T19:42:22.218Z,92.03
2024-01-06T19:44:49.149Z,92.31
2024-01-06T19:47:17.357Z,92.13
2024-01-06T19:49:44.548Z,91.01
2024-01-06T19:52:18.675Z,90.86
2024-01-06T19:54:45.650Z,90.79
2024-01-06T19:57:16.185Z,90.62
2024-01-06T19:59:43.348Z,91.57
2024-01-06T20:02:19.396Z,91.48
2024-01-06T20:04:46.328Z,91.31
2024-01-06T20:07:13.407Z,91.75
2024-01-06T20:09:45.967Z,92.97
2024-01-06T20:12:18.950Z,91.82
2024-01-06T20:14:45.912Z,91.29
2024-01-06T20:17:12.939Z,90.38
2024-01-06T20:19:40.191Z,91.18
2024-01-06T20:22:12.612Z,91.83
2024-01-06T20:24:40.430Z,91.05
2024-01-06T20:27:07.421Z,90.41
2024-01-06T20:29:34.682Z,92.41
2024-01-06T20:32:01.974Z,91.92
2024-01-06T20:34:28.943Z,91.54
2024-01-06T20:36:57.034Z,91.23
2024-01-06T20:39:23.926Z,91.06
2024-01-06T20:41:51.907Z,92.46
2024-01-06T20:44:18.967Z,91.85
2024-01-06T20:46:45.820Z,91.21
2024-01-06T20:49:12.941Z,91.19
2024-01-06T20:51:44.392Z,92.14
2024-01-06T20:54:11.400Z,91.73
2024-01-06T20:56:38.313Z,91.53
2024-01-06T20:59:07.785Z,92.42
2024-01-06T21:01:35.175Z,92.92
2024-01-06T21:04:03.109Z,92.43
2024-01-06T21:06:30.125Z,92.64
2024-01-06T21:08:57.117Z,92.66
2024-01-06T21:11:24.189Z,94.18
2024-01-06T21:13:51.974Z,93.70
2024-01-06T21:16:19.057Z,92.07
2024-01-06T21:18:47.612Z,91.60
2024-01-06T21:21:15.338Z,90.83
2024-01-06T21:23:48.227Z,92.81
2024-01-06T21:26:16.316Z,94.69
2024-01-06T21:28:43.385Z,93.85
2024-01-06T21:31:11.399Z,94.65
2024-01-06T21:33:38.728Z,92.89
2024-01-06T21:36:05.942Z,91.88
2024-01-06T21:38:33.350Z,91.26
2024-01-06T21:41:00.351Z,90.71
2024-01-06T21:43:27.205Z,91.99
2024-01-06T21:45:54.493Z,92.56
2024-01-06T21:48:21.460Z,93.02
2024-01-06T21:50:48.674Z,91.82
2024-01-06T21:53:15.531Z,92.32
2024-01-06T21:55:43.536Z,91.54
2024-01-06T21:58:10.455Z,92.14
2024-01-06T22:00:37.553Z,93.98
2024-01-06T22:03:05.790Z,92.22
2024-01-06T22:05:32.759Z,90.95
2024-01-06T22:07:59.599Z,90.89
2024-01-06T22:10:34.008Z,91.87
2024-01-06T22:13:01.669Z,91.53
2024-01-06T22:15:28.743Z,92.46
2024-01-06T22:17:55.818Z,90.43
2024-01-06T22:20:22.985Z,90.75
2024-01-06T22:22:49.835Z,89.88
2024-01-06T22:25:16.835Z,91.35
2024-01-06T22:27:43.715Z,90.89
2024-01-06T22:30:15.471Z,91.59
2024-01-06T22:32:42.545Z,91.37
2024-01-06T22:35:09.613Z,91.15
2024-01-06T22:37:37.218Z,90.46
2024-01-06T22:40:06.618Z,89.47
2024-01-06T22:42:33.955Z,88.90
2024-01-06T22:45:00.882Z,89.23
2024-01-06T22:47:27.769Z,89.32
2024-01-06T22:49:54.732Z,89.84
2024-01-06T22:52:21.494Z,91.72
2024-01-06T22:54:48.268Z,90.85
2024-01-06T22:57:15.413Z,90.04
2024-01-06T22:59:42.363Z,92.98
2024-01-06T23:02:19.072Z,92.67
2024-01-06T23:04:46.137Z,91.37
2024-01-06T23:07:13.259Z,91.82
2024-01-06T23:09:40.309Z,89.59
2024-01-06T23:12:10.865Z,90.55
2024-01-06T23:14:37.686Z,91.75
2024-01-06T23:17:04.697Z,89.70
2024-01-06T23:19:31.656Z,89.25
2024-01-06T23:21:58.547Z,88.62
2024-01-06T23:24:25.400Z,87.63
2024-01-06T23:26:52.307Z,88.73
2024-01-06T23:29:19.068Z,88.88
2024-01-06T23:31:46.101Z,89.63
2024-01-06T23:34:26.004Z,90.23
2024-01-06T23:36:57.261Z,88.24
2024-01-06T23:39:24.218Z,86.04
2024-01-06T23:41:51.993Z,84.50
2024-01-06T23:44:18.832Z,84.64
2024-01-06T23:46:45.682Z,85.05
2024-01-06T23:49:14.174Z,83.97
2024-01-06T23:51:41.115Z,84.91
2024-01-06T23:54:07.996Z,84.38
2024-01-06T23:56:34.809Z,84.37
2024-01-06T23:59:02.136Z,82.59
